sensor_id;sensor_type;location;lat;lon;timestamp;pressure;altitude;pressure_sealevel;temperature;humidity
60258;BME280;46115;44.484;11.314;2023-05-12T00:03:46;99970.88;;;13.94;100.00
60258;BME280;46115;44.484;11.314;2023-05-12T00:07:48;99963.97;;;14.04;100.00
60258;BME280;46115;44.484;11.314;2023-05-12T00:11:50;99961.97;;;13.95;100.00
60258;BME280;46115;44.484;11.314;2023-05-12T00:15:54;99945.19;;;14.18;100.00
60258;BME280;46115;44.484;11.314;2023-05-12T00:19:58;99955.44;;;14.12;100.00
60258;BME280;46115;44.484;11.314;2023-05-12T00:24:01;99959.59;;;14.03;100.00
60258;BME280;46115;44.484;11.314;2023-05-12T00:28:04;99956.84;;;14.41;100.00
60258;BME280;46115;44.484;11.314;2023-05-12T00:32:07;99946.28;;;14.52;100.00
60258;BME280;46115;44.484;11.314;2023-05-12T00:36:10;99926.66;;;14.66;99.79
60258;BME280;46115;44.484;11.314;2023-05-12T00:40:12;99952.19;;;14.69;99.74
60258;BME280;46115;44.484;11.314;2023-05-12T00:44:15;99944.41;;;14.05;100.00
60258;BME280;46115;44.484;11.314;2023-05-12T00:48:19;99953.22;;;14.05;100.00
60258;BME280;46115;44.484;11.314;2023-05-12T00:52:22;99960.38;;;13.92;100.00
60258;BME280;46115;44.484;11.314;2023-05-12T00:56:25;99966.00;;;14.00;100.00
60258;BME280;46115;44.484;11.314;2023-05-12T01:00:27;99973.66;;;13.92;100.00
60258;BME280;46115;44.484;11.314;2023-05-12T01:04:32;99966.78;;;14.26;100.00
60258;BME280;46115;44.484;11.314;2023-05-12T01:08:35;99956.28;;;14.61;100.00
60258;BME280;46115;44.484;11.314;2023-05-12T01:12:38;99959.00;;;14.36;100.00
60258;BME280;46115;44.484;11.314;2023-05-12T01:16:45;99948.41;;;14.11;100.00
60258;BME280;46115;44.484;11.314;2023-05-12T01:20:51;99943.34;;;14.44;100.00
60258;BME280;46115;44.484;11.314;2023-05-12T01:24:56;99950.41;;;14.20;100.00
60258;BME280;46115;44.484;11.314;2023-05-12T01:29:03;99943.59;;;14.28;100.00
60258;BME280;46115;44.484;11.314;2023-05-12T01:33:08;99932.53;;;14.22;100.00
60258;BME280;46115;44.484;11.314;2023-05-12T01:37:10;99934.22;;;13.99;100.00
60258;BME280;46115;44.484;11.314;2023-05-12T01:41:14;99933.47;;;13.97;100.00
60258;BME280;46115;44.484;11.314;2023-05-12T01:45:18;99928.91;;;13.86;100.00
60258;BME280;46115;44.484;11.314;2023-05-12T01:49:21;99910.75;;;13.80;100.00
60258;BME280;46115;44.484;11.314;2023-05-12T01:53:24;99928.09;;;13.60;100.00
60258;BME280;46115;44.484;11.314;2023-05-12T01:57:26;99929.59;;;13.26;100.00
60258;BME280;46115;44.484;11.314;2023-05-12T02:01:34;99920.56;;;13.54;100.00
60258;BME280;46115;44.484;11.314;2023-05-12T02:05:37;99927.47;;;13.19;100.00
60258;BME280;46115;44.484;11.314;2023-05-12T02:09:39;99936.59;;;13.40;100.00
60258;BME280;46115;44.484;11.314;2023-05-12T02:13:42;99941.56;;;13.45;100.00
60258;BME280;46115;44.484;11.314;2023-05-12T02:17:46;99939.13;;;13.41;100.00
60258;BME280;46115;44.484;11.314;2023-05-12T02:21:51;99930.69;;;13.09;100.00
60258;BME280;46115;44.484;11.314;2023-05-12T02:25:56;99907.63;;;12.85;100.00
60258;BME280;46115;44.484;11.314;2023-05-12T02:29:58;99929.31;;;13.17;100.00
60258;BME280;46115;44.484;11.314;2023-05-12T02:34:02;99935.03;;;12.98;100.00
60258;BME280;46115;44.484;11.314;2023-05-12T02:38:05;99932.59;;;13.07;100.00
60258;BME280;46115;44.484;11.314;2023-05-12T02:42:07;99934.69;;;13.55;100.00
60258;BME280;46115;44.484;11.314;2023-05-12T02:46:10;99928.38;;;12.65;100.00
60258;BME280;46115;44.484;11.314;2023-05-12T02:50:14;99937.28;;;13.17;100.00
60258;BME280;46115;44.484;11.314;2023-05-12T02:54:17;99939.47;;;13.37;100.00
60258;BME280;46115;44.484;11.314;2023-05-12T02:58:19;99941.28;;;13.62;100.00
60258;BME280;46115;44.484;11.314;2023-05-12T03:02:22;99939.78;;;13.70;100.00
60258;BME280;46115;44.484;11.314;2023-05-12T03:06:26;99896.66;;;13.41;100.00
60258;BME280;46115;44.484;11.314;2023-05-12T03:10:28;99908.81;;;13.06;100.00
60258;BME280;46115;44.484;11.314;2023-05-12T03:14:31;99933.28;;;13.49;100.00
60258;BME280;46115;44.484;11.314;2023-05-12T03:18:33;99935.22;;;13.34;100.00
60258;BME280;46115;44.484;11.314;2023-05-12T03:22:37;99933.75;;;13.56;100.00
60258;BME280;46115;44.484;11.314;2023-05-12T03:26:40;99941.50;;;13.59;100.00
60258;BME280;46115;44.484;11.314;2023-05-12T03:30:42;99938.47;;;13.76;100.00
60258;BME280;46115;44.484;11.314;2023-05-12T03:34:45;99940.06;;;13.79;100.00
60258;BME280;46115;44.484;11.314;2023-05-12T03:38:48;99929.44;;;13.91;100.00
60258;BME280;46115;44.484;11.314;2023-05-12T03:42:51;99937.31;;;13.80;100.00
60258;BME280;46115;44.484;11.314;2023-05-12T03:46:53;99886.66;;;13.70;100.00
60258;BME280;46115;44.484;11.314;2023-05-12T03:50:56;99925.56;;;14.08;100.00
60258;BME280;46115;44.484;11.314;2023-05-12T03:54:59;99933.91;;;13.78;100.00
60258;BME280;46115;44.484;11.314;2023-05-12T03:59:02;99930.22;;;13.68;100.00
60258;BME280;46115;44.484;11.314;2023-05-12T04:03:04;99938.31;;;14.16;100.00
60258;BME280;46115;44.484;11.314;2023-05-12T04:07:07;99944.13;;;14.21;100.00
60258;BME280;46115;44.484;11.314;2023-05-12T04:11:11;99944.63;;;14.02;100.00
60258;BME280;46115;44.484;11.314;2023-05-12T04:15:15;99942.06;;;14.00;100.00
60258;BME280;46115;44.484;11.314;2023-05-12T04:19:19;99938.47;;;13.76;100.00
60258;BME280;46115;44.484;11.314;2023-05-12T04:23:22;99936.13;;;13.84;100.00
60258;BME280;46115;44.484;11.314;2023-05-12T04:27:25;99947.09;;;13.67;100.00
60258;BME280;46115;44.484;11.314;2023-05-12T04:31:28;99944.53;;;13.78;100.00
60258;BME280;46115;44.484;11.314;2023-05-12T04:35:32;99947.88;;;13.56;100.00
60258;BME280;46115;44.484;11.314;2023-05-12T04:39:34;99951.47;;;13.55;100.00
60258;BME280;46115;44.484;11.314;2023-05-12T04:43:38;99944.56;;;13.65;100.00
60258;BME280;46115;44.484;11.314;2023-05-12T04:47:41;99953.50;;;13.64;100.00
60258;BME280;46115;44.484;11.314;2023-05-12T04:51:43;99957.28;;;13.86;100.00
60258;BME280;46115;44.484;11.314;2023-05-12T04:55:46;99951.44;;;13.93;100.00
60258;BME280;46115;44.484;11.314;2023-05-12T04:59:52;99953.03;;;14.69;98.70
60258;BME280;46115;44.484;11.314;2023-05-12T05:03:55;99945.25;;;14.42;97.65
60258;BME280;46115;44.484;11.314;2023-05-12T05:07:58;99943.22;;;14.46;99.71
60258;BME280;46115;44.484;11.314;2023-05-12T05:12:02;99953.09;;;14.80;96.82
60258;BME280;46115;44.484;11.314;2023-05-12T05:16:06;99958.03;;;15.09;93.58
60258;BME280;46115;44.484;11.314;2023-05-12T05:20:09;99958.56;;;15.71;90.79
60258;BME280;46115;44.484;11.314;2023-05-12T05:24:12;99962.81;;;16.07;86.99
60258;BME280;46115;44.484;11.314;2023-05-12T05:28:15;99956.00;;;15.23;89.14
60258;BME280;46115;44.484;11.314;2023-05-12T05:32:19;99954.03;;;14.55;95.45
60258;BME280;46115;44.484;11.314;2023-05-12T05:36:22;99939.47;;;14.24;97.29
60258;BME280;46115;44.484;11.314;2023-05-12T05:40:26;99969.50;;;14.98;94.56
60258;BME280;46115;44.484;11.314;2023-05-12T05:44:28;99981.03;;;14.86;93.32
60258;BME280;46115;44.484;11.314;2023-05-12T05:48:33;99964.88;;;14.28;95.61
60258;BME280;46115;44.484;11.314;2023-05-12T05:52:36;99983.59;;;15.22;92.17
60258;BME280;46115;44.484;11.314;2023-05-12T05:56:39;99992.44;;;15.58;87.54
60258;BME280;46115;44.484;11.314;2023-05-12T06:00:42;99970.59;;;15.42;88.41
60258;BME280;46115;44.484;11.314;2023-05-12T06:04:45;100000.09;;;15.27;89.91
60258;BME280;46115;44.484;11.314;2023-05-12T06:08:49;99989.09;;;15.78;89.09
60258;BME280;46115;44.484;11.314;2023-05-12T06:12:52;100002.41;;;15.89;87.67
60258;BME280;46115;44.484;11.314;2023-05-12T06:16:55;100004.00;;;16.26;85.11
60258;BME280;46115;44.484;11.314;2023-05-12T06:20:59;100014.28;;;15.85;84.78
60258;BME280;46115;44.484;11.314;2023-05-12T06:25:04;100008.72;;;15.77;86.78
60258;BME280;46115;44.484;11.314;2023-05-12T06:29:07;100006.53;;;16.27;85.46
60258;BME280;46115;44.484;11.314;2023-05-12T06:33:09;100003.75;;;16.40;81.78
60258;BME280;46115;44.484;11.314;2023-05-12T06:37:13;100010.88;;;15.61;85.46
60258;BME280;46115;44.484;11.314;2023-05-12T06:41:15;100020.38;;;15.52;87.70
60258;BME280;46115;44.484;11.314;2023-05-12T06:45:18;100023.88;;;16.10;85.40
60258;BME280;46115;44.484;11.314;2023-05-12T06:49:21;100024.72;;;17.31;79.92
60258;BME280;46115;44.484;11.314;2023-05-12T06:53:24;100025.09;;;16.17;81.07
60258;BME280;46115;44.484;11.314;2023-05-12T06:57:28;100028.09;;;17.12;81.75
60258;BME280;46115;44.484;11.314;2023-05-12T07:01:31;100023.41;;;16.39;81.43
60258;BME280;46115;44.484;11.314;2023-05-12T07:05:34;100020.25;;;16.99;78.77
60258;BME280;46115;44.484;11.314;2023-05-12T07:09:38;100003.47;;;17.08;77.72
60258;BME280;46115;44.484;11.314;2023-05-12T07:13:42;100022.41;;;18.00;75.77
60258;BME280;46115;44.484;11.314;2023-05-12T07:17:44;100018.44;;;17.94;76.17
60258;BME280;46115;44.484;11.314;2023-05-12T07:21:47;100028.41;;;18.53;73.29
60258;BME280;46115;44.484;11.314;2023-05-12T07:25:51;100029.22;;;18.44;73.73
60258;BME280;46115;44.484;11.314;2023-05-12T07:29:53;100033.88;;;18.42;71.83
60258;BME280;46115;44.484;11.314;2023-05-12T07:33:56;100035.97;;;18.08;70.75
60258;BME280;46115;44.484;11.314;2023-05-12T07:37:58;100037.28;;;18.54;67.30
60258;BME280;46115;44.484;11.314;2023-05-12T07:42:03;100033.78;;;18.23;70.74
60258;BME280;46115;44.484;11.314;2023-05-12T07:46:05;100009.53;;;18.55;68.62
60258;BME280;46115;44.484;11.314;2023-05-12T07:50:08;99978.47;;;19.97;65.81
60258;BME280;46115;44.484;11.314;2023-05-12T07:54:11;100018.41;;;20.37;60.69
60258;BME280;46115;44.484;11.314;2023-05-12T07:58:14;100009.94;;;20.42;60.40
60258;BME280;46115;44.484;11.314;2023-05-12T08:02:17;100010.44;;;21.54;57.52
60258;BME280;46115;44.484;11.314;2023-05-12T08:06:20;100018.09;;;21.48;57.04
60258;BME280;46115;44.484;11.314;2023-05-12T08:10:22;100019.09;;;21.91;54.54
60258;BME280;46115;44.484;11.314;2023-05-12T08:14:30;100019.41;;;21.62;55.20
60258;BME280;46115;44.484;11.314;2023-05-12T08:18:33;100018.72;;;21.07;59.42
60258;BME280;46115;44.484;11.314;2023-05-12T08:22:35;100023.09;;;22.39;58.14
60258;BME280;46115;44.484;11.314;2023-05-12T08:26:38;100023.53;;;22.26;56.30
60258;BME280;46115;44.484;11.314;2023-05-12T08:30:42;100021.84;;;22.67;56.60
60258;BME280;46115;44.484;11.314;2023-05-12T08:34:45;100030.59;;;23.52;53.04
60258;BME280;46115;44.484;11.314;2023-05-12T08:38:48;100029.09;;;23.58;50.43
60258;BME280;46115;44.484;11.314;2023-05-12T08:42:55;100027.75;;;23.78;51.62
60258;BME280;46115;44.484;11.314;2023-05-12T08:47:03;100019.78;;;23.93;50.13
60258;BME280;46115;44.484;11.314;2023-05-12T08:51:07;100031.34;;;24.26;50.99
60258;BME280;46115;44.484;11.314;2023-05-12T08:55:12;100022.34;;;23.46;49.35
60258;BME280;46115;44.484;11.314;2023-05-12T08:59:15;100021.63;;;24.56;49.83
60258;BME280;46115;44.484;11.314;2023-05-12T09:03:19;100019.06;;;24.63;47.64
60258;BME280;46115;44.484;11.314;2023-05-12T09:07:23;100020.41;;;24.27;49.74
60258;BME280;46115;44.484;11.314;2023-05-12T09:11:26;100017.25;;;24.55;48.15
60258;BME280;46115;44.484;11.314;2023-05-12T09:15:38;100005.84;;;23.73;49.77
60258;BME280;46115;44.484;11.314;2023-05-12T09:19:43;99965.59;;;24.11;49.21
60258;BME280;46115;44.484;11.314;2023-05-12T09:23:53;100015.03;;;24.11;49.47
60258;BME280;46115;44.484;11.314;2023-05-12T09:27:56;99999.22;;;23.19;49.82
60258;BME280;46115;44.484;11.314;2023-05-12T09:32:02;99964.00;;;23.53;50.51
60258;BME280;46115;44.484;11.314;2023-05-12T09:36:06;99972.44;;;23.42;50.79
60258;BME280;46115;44.484;11.314;2023-05-12T09:40:09;99994.00;;;22.93;50.51
60258;BME280;46115;44.484;11.314;2023-05-12T09:44:14;99993.50;;;22.97;50.78
60258;BME280;46115;44.484;11.314;2023-05-12T09:48:17;99986.44;;;22.54;52.49
60258;BME280;46115;44.484;11.314;2023-05-12T09:52:21;99982.44;;;22.66;52.03
60258;BME280;46115;44.484;11.314;2023-05-12T09:56:27;99980.91;;;21.88;54.11
60258;BME280;46115;44.484;11.314;2023-05-12T10:00:31;99989.50;;;21.65;55.68
60258;BME280;46115;44.484;11.314;2023-05-12T10:04:36;99984.69;;;22.03;54.71
60258;BME280;46115;44.484;11.314;2023-05-12T10:08:50;99992.72;;;21.95;53.84
60258;BME280;46115;44.484;11.314;2023-05-12T10:12:53;99964.56;;;20.39;57.07
60258;BME280;46115;44.484;11.314;2023-05-12T10:16:58;99975.13;;;20.95;57.31
60258;BME280;46115;44.484;11.314;2023-05-12T10:21:01;99978.97;;;20.93;57.57
60258;BME280;46115;44.484;11.314;2023-05-12T10:25:07;99965.31;;;20.86;57.13
60258;BME280;46115;44.484;11.314;2023-05-12T10:29:10;99973.34;;;21.39;57.30
60258;BME280;46115;44.484;11.314;2023-05-12T10:33:13;99972.50;;;21.39;57.65
60258;BME280;46115;44.484;11.314;2023-05-12T10:37:15;99974.72;;;20.72;59.20
60258;BME280;46115;44.484;11.314;2023-05-12T10:41:30;99966.56;;;20.64;59.57
60258;BME280;46115;44.484;11.314;2023-05-12T10:45:35;99972.94;;;20.63;59.33
60258;BME280;46115;44.484;11.314;2023-05-12T10:49:39;99980.16;;;20.80;60.67
60258;BME280;46115;44.484;11.314;2023-05-12T10:53:43;99974.72;;;20.72;60.06
60258;BME280;46115;44.484;11.314;2023-05-12T10:57:49;99975.69;;;20.53;61.26
60258;BME280;46115;44.484;11.314;2023-05-12T11:02:00;99983.13;;;19.95;62.71
60258;BME280;46115;44.484;11.314;2023-05-12T11:06:04;99961.66;;;20.60;60.82
60258;BME280;46115;44.484;11.314;2023-05-12T11:10:07;99954.91;;;20.28;61.85
60258;BME280;46115;44.484;11.314;2023-05-12T11:14:12;99956.81;;;20.81;61.12
60258;BME280;46115;44.484;11.314;2023-05-12T11:18:19;99964.78;;;20.28;62.30
60258;BME280;46115;44.484;11.314;2023-05-12T11:22:22;99945.75;;;19.93;65.17
60258;BME280;46115;44.484;11.314;2023-05-12T11:26:24;99938.25;;;20.70;61.74
60258;BME280;46115;44.484;11.314;2023-05-12T11:30:28;99941.16;;;20.31;63.78
60258;BME280;46115;44.484;11.314;2023-05-12T11:34:30;99937.72;;;20.39;62.29
60258;BME280;46115;44.484;11.314;2023-05-12T11:38:33;99934.31;;;19.91;63.07
60258;BME280;46115;44.484;11.314;2023-05-12T11:42:35;99956.00;;;19.61;63.84
60258;BME280;46115;44.484;11.314;2023-05-12T11:46:40;99971.22;;;19.70;64.05
60258;BME280;46115;44.484;11.314;2023-05-12T11:50:44;100004.91;;;19.92;64.10
60258;BME280;46115;44.484;11.314;2023-05-12T11:54:48;100053.34;;;19.81;65.30
60258;BME280;46115;44.484;11.314;2023-05-12T11:58:52;100064.59;;;18.97;68.00
60258;BME280;46115;44.484;11.314;2023-05-12T12:03:10;100042.50;;;17.94;73.13
60258;BME280;46115;44.484;11.314;2023-05-12T12:07:13;100031.09;;;17.19;73.32
60258;BME280;46115;44.484;11.314;2023-05-12T12:11:17;100035.06;;;17.35;71.73
60258;BME280;46115;44.484;11.314;2023-05-12T12:15:19;100049.94;;;17.17;73.63
60258;BME280;46115;44.484;11.314;2023-05-12T12:19:23;100077.22;;;16.10;75.92
60258;BME280;46115;44.484;11.314;2023-05-12T12:23:26;100089.84;;;16.31;75.10
60258;BME280;46115;44.484;11.314;2023-05-12T12:27:29;100090.56;;;16.44;74.64
60258;BME280;46115;44.484;11.314;2023-05-12T12:31:31;100114.53;;;16.21;73.07
60258;BME280;46115;44.484;11.314;2023-05-12T12:35:35;100067.22;;;15.79;74.72
60258;BME280;46115;44.484;11.314;2023-05-12T12:39:38;100051.59;;;14.91;78.32
60258;BME280;46115;44.484;11.314;2023-05-12T12:43:40;100044.13;;;14.73;82.23
60258;BME280;46115;44.484;11.314;2023-05-12T12:47:43;100029.44;;;14.67;83.07
60258;BME280;46115;44.484;11.314;2023-05-12T12:51:47;100060.41;;;14.68;83.95
60258;BME280;46115;44.484;11.314;2023-05-12T12:55:49;100070.31;;;14.90;84.81
60258;BME280;46115;44.484;11.314;2023-05-12T12:59:51;100072.00;;;14.67;85.97
60258;BME280;46115;44.484;11.314;2023-05-12T13:03:54;100091.81;;;14.50;87.12
60258;BME280;46115;44.484;11.314;2023-05-12T13:07:58;100105.09;;;14.76;85.65
60258;BME280;46115;44.484;11.314;2023-05-12T13:12:03;100107.16;;;14.96;84.69
60258;BME280;46115;44.484;11.314;2023-05-12T13:16:06;100091.19;;;14.59;88.25
60258;BME280;46115;44.484;11.314;2023-05-12T13:20:09;100103.72;;;14.70;86.52
60258;BME280;46115;44.484;11.314;2023-05-12T13:24:13;100110.56;;;14.61;85.77
60258;BME280;46115;44.484;11.314;2023-05-12T13:28:16;100109.94;;;14.58;87.92
60258;BME280;46115;44.484;11.314;2023-05-12T13:32:18;100132.19;;;14.93;87.78
60258;BME280;46115;44.484;11.314;2023-05-12T13:36:21;100138.09;;;14.48;90.00
60258;BME280;46115;44.484;11.314;2023-05-12T13:40:25;100125.44;;;14.13;92.37
60258;BME280;46115;44.484;11.314;2023-05-12T13:44:27;100117.19;;;14.80;89.24
60258;BME280;46115;44.484;11.314;2023-05-12T13:48:29;100117.69;;;14.97;87.54
60258;BME280;46115;44.484;11.314;2023-05-12T13:52:32;100121.03;;;15.12;87.46
60258;BME280;46115;44.484;11.314;2023-05-12T13:56:36;100119.63;;;15.19;88.71
60258;BME280;46115;44.484;11.314;2023-05-12T14:00:39;100109.06;;;15.31;88.71
60258;BME280;46115;44.484;11.314;2023-05-12T14:04:42;100130.44;;;15.53;87.63
60258;BME280;46115;44.484;11.314;2023-05-12T14:08:44;100133.91;;;15.18;91.42
60258;BME280;46115;44.484;11.314;2023-05-12T14:12:48;100136.47;;;15.44;92.97
60258;BME280;46115;44.484;11.314;2023-05-12T14:16:50;100138.53;;;15.04;91.95
60258;BME280;46115;44.484;11.314;2023-05-12T14:20:52;100119.41;;;14.86;91.22
60258;BME280;46115;44.484;11.314;2023-05-12T14:24:55;100114.41;;;14.57;93.17
60258;BME280;46115;44.484;11.314;2023-05-12T14:28:59;100107.63;;;15.14;91.96
60258;BME280;46115;44.484;11.314;2023-05-12T14:33:01;100082.41;;;15.31;89.21
60258;BME280;46115;44.484;11.314;2023-05-12T14:37:04;100113.00;;;15.73;85.07
60258;BME280;46115;44.484;11.314;2023-05-12T14:41:06;100098.47;;;15.77;86.36
60258;BME280;46115;44.484;11.314;2023-05-12T14:45:11;100082.72;;;15.26;85.62
60258;BME280;46115;44.484;11.314;2023-05-12T14:49:13;100096.28;;;15.23;86.09
60258;BME280;46115;44.484;11.314;2023-05-12T14:53:21;100048.41;;;15.34;84.56
60258;BME280;46115;44.484;11.314;2023-05-12T14:57:23;100090.53;;;16.10;86.77
60258;BME280;46115;44.484;11.314;2023-05-12T15:01:27;100099.41;;;16.22;80.34
60258;BME280;46115;44.484;11.314;2023-05-12T15:05:29;100051.47;;;15.76;85.57
60258;BME280;46115;44.484;11.314;2023-05-12T15:09:32;100096.13;;;16.18;82.62
60258;BME280;46115;44.484;11.314;2023-05-12T15:13:34;100065.16;;;15.47;83.19
60258;BME280;46115;44.484;11.314;2023-05-12T15:17:38;100080.34;;;16.27;83.15
60258;BME280;46115;44.484;11.314;2023-05-12T15:21:41;100074.69;;;15.39;81.83
60258;BME280;46115;44.484;11.314;2023-05-12T15:25:43;100084.31;;;15.76;86.29
60258;BME280;46115;44.484;11.314;2023-05-12T15:29:45;100082.09;;;15.70;83.21
60258;BME280;46115;44.484;11.314;2023-05-12T15:33:49;100081.72;;;15.64;85.66
60258;BME280;46115;44.484;11.314;2023-05-12T15:37:52;100075.00;;;15.93;82.43
60258;BME280;46115;44.484;11.314;2023-05-12T15:41:54;100080.31;;;15.82;82.81
60258;BME280;46115;44.484;11.314;2023-05-12T15:45:57;100078.75;;;15.90;79.86
60258;BME280;46115;44.484;11.314;2023-05-12T15:50:01;100072.41;;;15.69;77.72
60258;BME280;46115;44.484;11.314;2023-05-12T15:54:04;100086.00;;;15.77;81.83
60258;BME280;46115;44.484;11.314;2023-05-12T15:58:06;100087.75;;;16.01;82.23
60258;BME280;46115;44.484;11.314;2023-05-12T16:02:09;100084.31;;;15.76;84.62
60258;BME280;46115;44.484;11.314;2023-05-12T16:06:13;100081.41;;;15.90;80.95
60258;BME280;46115;44.484;11.314;2023-05-12T16:10:16;100078.97;;;15.87;82.25
60258;BME280;46115;44.484;11.314;2023-05-12T16:14:18;100091.41;;;16.11;79.03
60258;BME280;46115;44.484;11.314;2023-05-12T16:18:21;100088.69;;;15.88;81.59
60258;BME280;46115;44.484;11.314;2023-05-12T16:22:25;100094.28;;;15.97;80.98
60258;BME280;46115;44.484;11.314;2023-05-12T16:26:28;100090.50;;;15.88;81.59
60258;BME280;46115;44.484;11.314;2023-05-12T16:30:31;100087.81;;;15.88;81.59
60258;BME280;46115;44.484;11.314;2023-05-12T16:34:33;100080.41;;;15.45;83.52
60258;BME280;46115;44.484;11.314;2023-05-12T16:38:37;100074.00;;;15.24;84.84
60258;BME280;46115;44.484;11.314;2023-05-12T16:42:39;100078.84;;;15.67;83.93
60258;BME280;46115;44.484;11.314;2023-05-12T16:46:42;100083.81;;;15.23;86.77
60258;BME280;46115;44.484;11.314;2023-05-12T16:50:44;100070.66;;;14.85;91.23
60258;BME280;46115;44.484;11.314;2023-05-12T16:54:48;100069.28;;;14.92;92.55
60258;BME280;46115;44.484;11.314;2023-05-12T16:58:50;100044.28;;;14.82;93.22
60258;BME280;46115;44.484;11.314;2023-05-12T17:02:53;100074.16;;;14.62;97.12
60258;BME280;46115;44.484;11.314;2023-05-12T17:06:55;100079.22;;;14.78;97.87
60258;BME280;46115;44.484;11.314;2023-05-12T17:11:00;100084.97;;;14.72;99.36
60258;BME280;46115;44.484;11.314;2023-05-12T17:15:03;100077.66;;;14.99;97.64
60258;BME280;46115;44.484;11.314;2023-05-12T17:19:07;100076.72;;;14.51;97.79
60258;BME280;46115;44.484;11.314;2023-05-12T17:23:10;100069.06;;;14.59;97.07
60258;BME280;46115;44.484;11.314;2023-05-12T17:27:15;100075.81;;;14.76;95.89
60258;BME280;46115;44.484;11.314;2023-05-12T17:31:17;100092.50;;;14.78;95.27
60258;BME280;46115;44.484;11.314;2023-05-12T17:35:21;100100.38;;;14.79;95.50
60258;BME280;46115;44.484;11.314;2023-05-12T17:39:23;100097.72;;;14.92;92.13
60258;BME280;46115;44.484;11.314;2023-05-12T17:43:27;100104.06;;;15.02;93.11
60258;BME280;46115;44.484;11.314;2023-05-12T17:47:29;100099.19;;;14.83;94.61
60258;BME280;46115;44.484;11.314;2023-05-12T17:51:32;100116.00;;;14.84;95.41
60258;BME280;46115;44.484;11.314;2023-05-12T17:55:35;100125.94;;;14.82;95.33
60258;BME280;46115;44.484;11.314;2023-05-12T17:59:39;100118.28;;;14.77;95.79
60258;BME280;46115;44.484;11.314;2023-05-12T18:03:42;100127.44;;;14.73;95.98
60258;BME280;46115;44.484;11.314;2023-05-12T18:07:44;100129.28;;;14.60;95.77
60258;BME280;46115;44.484;11.314;2023-05-12T18:11:46;100141.28;;;14.65;97.45
60258;BME280;46115;44.484;11.314;2023-05-12T18:15:51;100133.31;;;14.53;99.45
60258;BME280;46115;44.484;11.314;2023-05-12T18:19:53;100147.69;;;14.50;100.00
60258;BME280;46115;44.484;11.314;2023-05-12T18:23:55;100159.69;;;14.69;99.18
60258;BME280;46115;44.484;11.314;2023-05-12T18:27:58;100169.91;;;14.36;100.00
60258;BME280;46115;44.484;11.314;2023-05-12T18:32:02;100173.53;;;14.48;100.00
60258;BME280;46115;44.484;11.314;2023-05-12T18:36:04;100166.28;;;14.25;100.00
60258;BME280;46115;44.484;11.314;2023-05-12T18:40:08;100177.03;;;14.36;100.00
60258;BME280;46115;44.484;11.314;2023-05-12T18:44:11;100153.75;;;14.27;100.00
60258;BME280;46115;44.484;11.314;2023-05-12T18:48:30;100159.78;;;14.16;100.00
60258;BME280;46115;44.484;11.314;2023-05-12T18:52:33;100188.69;;;14.21;100.00
60258;BME280;46115;44.484;11.314;2023-05-12T18:56:35;100189.69;;;14.32;100.00
60258;BME280;46115;44.484;11.314;2023-05-12T19:00:37;100186.03;;;14.21;100.00
60258;BME280;46115;44.484;11.314;2023-05-12T19:04:41;100178.75;;;13.85;100.00
60258;BME280;46115;44.484;11.314;2023-05-12T19:08:50;100200.56;;;13.90;100.00
60258;BME280;46115;44.484;11.314;2023-05-12T19:12:54;100208.88;;;13.98;100.00
60258;BME280;46115;44.484;11.314;2023-05-12T19:16:59;100218.50;;;13.86;100.00
60258;BME280;46115;44.484;11.314;2023-05-12T22:16:32;100252.44;;;12.56;95.69
60258;BME280;46115;44.484;11.314;2023-05-12T22:20:35;100185.22;;;12.13;96.66
60258;BME280;46115;44.484;11.314;2023-05-12T22:24:37;100303.81;;;13.40;92.79
60258;BME280;46115;44.484;11.314;2023-05-12T22:28:40;100282.84;;;12.65;95.36
60258;BME280;46115;44.484;11.314;2023-05-12T22:32:44;100268.09;;;12.01;98.83
60258;BME280;46115;44.484;11.314;2023-05-12T22:36:46;100256.78;;;12.13;96.88
60258;BME280;46115;44.484;11.314;2023-05-12T22:40:48;100326.13;;;12.65;96.35
60258;BME280;46115;44.484;11.314;2023-05-12T22:44:54;100223.06;;;12.01;95.62
60258;BME280;46115;44.484;11.314;2023-05-12T22:49:02;100315.91;;;12.29;98.95
60258;BME280;46115;44.484;11.314;2023-05-12T22:53:04;100332.56;;;12.61;98.16
60258;BME280;46115;44.484;11.314;2023-05-12T22:57:06;100336.28;;;12.43;97.54
60258;BME280;46115;44.484;11.314;2023-05-12T23:01:09;100344.31;;;12.57;97.87
60258;BME280;46115;44.484;11.314;2023-05-12T23:05:13;100329.59;;;12.22;97.78
60258;BME280;46115;44.484;11.314;2023-05-12T23:09:15;100344.50;;;12.38;99.62
60258;BME280;46115;44.484;11.314;2023-05-12T23:13:17;100335.59;;;12.55;97.73
60258;BME280;46115;44.484;11.314;2023-05-12T23:17:20;100334.22;;;12.48;98.54
60258;BME280;46115;44.484;11.314;2023-05-12T23:21:24;100337.91;;;12.45;98.39
60258;BME280;46115;44.484;11.314;2023-05-12T23:25:26;100312.94;;;12.04;99.71
60258;BME280;46115;44.484;11.314;2023-05-12T23:29:28;100325.44;;;12.02;98.72
60258;BME280;46115;44.484;11.314;2023-05-12T23:33:31;100345.13;;;11.82;99.85
60258;BME280;46115;44.484;11.314;2023-05-12T23:37:35;100328.69;;;11.91;98.25
60258;BME280;46115;44.484;11.314;2023-05-12T23:41:37;100344.56;;;12.53;94.47
60258;BME280;46115;44.484;11.314;2023-05-12T23:45:39;100348.03;;;12.83;92.89
60258;BME280;46115;44.484;11.314;2023-05-12T23:49:42;100347.84;;;11.96;96.66
60258;BME280;46115;44.484;11.314;2023-05-12T23:53:45;100351.84;;;12.03;96.97